Time;durP1;ratioP1;P1;durP2;ratioP2;P2;SDS_P1;SDS_P2;PMS_P1;PMS_P2;Temp;Humidity;BMP_temperature;BMP_pressure;BME280_temperature;BME280_humidity;BME280_pressure;Samples;Min_cycle;Max_cycle;Signal;HPM_P1;HPM_P2
2022/10/01 00:01:01;;;;;;;5.63;3.25;;;11.60;99.90;;;;;;5050003;28;20073;-39
2022/10/01 00:03:28;;;;;;;4.60;3.33;;;11.60;99.90;;;;;;5050286;28;20120;-39
2022/10/01 00:06:11;;;;;;;4.85;3.38;;;11.60;99.90;;;;;;5053392;28;20111;-38
2022/10/01 00:08:38;;;;;;;;;;;11.50;99.90;;;;;;5046694;28;20505;-39
2022/10/01 00:11:13;;;;;;;5.35;3.30;;;11.50;99.90;;;;;;5049022;28;20298;-38
2022/10/01 00:13:41;;;;;;;6.82;3.47;;;11.50;99.90;;;;;;5049230;28;20391;-38
2022/10/01 00:16:09;;;;;;;5.50;3.63;;;11.50;99.90;;;;;;5046057;28;20541;-38
2022/10/01 00:18:40;;;;;;;6.32;4.50;;;11.50;99.90;;;;;;5045434;28;20041;-38
2022/10/01 00:21:11;;;;;;;6.53;3.80;;;11.40;99.90;;;;;;5048181;28;20541;-37
2022/10/01 00:23:37;;;;;;;6.30;3.80;;;11.40;99.90;;;;;;5047185;28;20028;-39
2022/10/01 00:26:20;;;;;;;6.70;3.70;;;11.40;99.90;;;;;;5047444;28;20082;-38
2022/10/01 00:28:51;;;;;;;8.23;4.47;;;11.40;99.90;;;;;;5047713;28;20045;-40
2022/10/01 00:31:17;;;;;;;5.93;4.00;;;11.40;99.90;;;;;;5046195;28;20044;-39
2022/10/01 00:33:42;;;;;;;5.70;4.25;;;11.40;99.90;;;;;;5050026;28;20052;-39
2022/10/01 00:36:10;;;;;;;6.93;4.47;;;11.40;99.90;;;;;;5050804;28;20052;-38
2022/10/01 00:38:41;;;;;;;5.93;3.90;;;11.30;99.90;;;;;;5048648;28;20505;-38
2022/10/01 00:41:08;;;;;;;7.50;3.75;;;11.30;99.90;;;;;;5053365;28;20123;-39
2022/10/01 00:43:43;;;;;;;7.07;4.45;;;11.30;99.90;;;;;;5031960;28;20052;-37
2022/10/01 00:46:18;;;;;;;7.00;4.60;;;11.30;99.90;;;;;;5049178;28;20049;-38
2022/10/01 00:49:13;;;;;;;6.90;4.63;;;11.30;99.90;;;;;;5049071;28;20410;-39
2022/10/01 00:51:44;;;;;;;9.10;4.65;;;11.30;99.90;;;;;;5050537;28;20094;-40
2022/10/01 00:54:21;;;;;;;6.22;4.22;;;11.30;99.90;;;;;;5048896;28;20517;-39
2022/10/01 00:56:51;;;;;;;6.50;4.38;;;11.30;99.90;;;;;;5051821;28;20044;-39
2022/10/01 00:59:17;;;;;;;6.57;4.35;;;11.30;99.90;;;;;;5056277;28;20406;-39
2022/10/01 01:01:43;;;;;;;7.85;4.35;;;11.30;99.90;;;;;;5049710;28;20049;-39
2022/10/01 01:04:18;;;;;;;6.93;4.47;;;11.30;99.90;;;;;;5049041;28;20099;-38
2022/10/01 01:06:50;;;;;;;7.28;4.45;;;11.30;99.90;;;;;;5052629;28;20037;-39
2022/10/01 01:09:16;;;;;;;7.47;4.93;;;11.30;99.90;;;;;;5047597;28;20509;-39
2022/10/01 01:12:09;;;;;;;5.93;3.80;;;11.20;99.90;;;;;;5045336;28;20052;-39
2022/10/01 01:14:53;;;;;;;10.05;4.85;;;11.20;99.90;;;;;;5054346;28;20055;-39
2022/10/01 01:17:29;;;;;;;7.68;5.22;;;11.20;99.90;;;;;;5052452;28;20781;-39
2022/10/01 01:20:16;;;;;;;7.18;4.72;;;11.20;99.90;;;;;;5055327;28;20063;-39
2022/10/01 01:22:50;;;;;;;7.82;3.80;;;11.20;99.90;;;;;;5051961;28;20482;-39
2022/10/01 01:25:41;;;;;;;7.28;4.28;;;11.20;99.90;;;;;;5047460;28;20036;-39
2022/10/01 01:28:35;;;;;;;7.18;4.43;;;11.20;99.90;;;;;;5049494;28;20412;-38
2022/10/01 01:31:12;;;;;;;5.57;3.60;;;11.10;99.90;;;;;;5046073;28;20044;-40
2022/10/01 01:33:40;;;;;;;6.22;3.72;;;11.20;99.90;;;;;;5052017;28;20032;-39
2022/10/01 01:36:17;;;;;;;5.72;4.03;;;11.20;99.90;;;;;;5053289;28;20037;-39
2022/10/01 01:38:48;;;;;;;7.07;4.63;;;11.10;99.90;;;;;;5048847;28;20045;-39
2022/10/01 01:41:16;;;;;;;8.05;4.40;;;11.20;99.90;;;;;;5050069;28;20060;-37
2022/10/01 01:43:46;;;;;;;6.60;4.35;;;11.10;99.90;;;;;;5048455;28;20036;-40
2022/10/01 01:46:16;;;;;;;7.18;4.00;;;11.10;99.90;;;;;;5049951;28;20520;-38
2022/10/01 01:48:46;;;;;;;6.28;4.07;;;11.10;99.90;;;;;;5055114;28;20044;-38
2022/10/01 01:51:44;;;;;;;7.65;4.45;;;11.20;99.90;;;;;;5046684;28;20048;-38
2022/10/01 01:54:11;;;;;;;5.93;3.85;;;11.10;99.90;;;;;;5037303;28;20081;-38
2022/10/01 01:56:36;;;;;;;5.63;3.60;;;11.10;99.90;;;;;;5048144;28;20036;-38
2022/10/01 01:59:03;;;;;;;5.32;3.15;;;11.10;99.90;;;;;;5048152;28;20379;-38
2022/10/01 02:01:39;;;;;;;6.78;3.90;;;11.10;99.90;;;;;;5049580;28;20052;-38
2022/10/01 02:04:31;;;;;;;6.13;3.72;;;11.10;99.90;;;;;;5049255;28;20037;-38
2022/10/01 02:07:19;;;;;;;5.13;3.55;;;11.10;99.90;;;;;;5049276;28;20064;-40
2022/10/01 02:10:13;;;;;;;7.07;3.22;;;11.10;99.90;;;;;;5031745;28;20102;-38
2022/10/01 02:13:04;;;;;;;5.93;3.30;;;11.10;99.90;;;;;;5043173;28;20044;-41
2022/10/01 02:16:00;;;;;;;7.07;3.65;;;11.10;99.90;;;;;;5043809;28;20036;-39
2022/10/01 02:18:43;;;;;;;5.47;3.55;;;11.10;99.90;;;;;;5045684;28;20052;-40
2022/10/01 02:21:18;;;;;;;5.57;3.28;;;11.10;99.90;;;;;;5050817;28;20049;-39
2022/10/01 02:23:56;;;;;;;4.80;3.20;;;11.20;99.90;;;;;;5050827;28;20047;-39
2022/10/01 02:26:25;;;;;;;4.75;2.67;;;11.20;99.90;;;;;;5046007;28;20033;-39
2022/10/01 02:28:56;;;;;;;7.10;2.83;;;11.20;99.90;;;;;;5050027;28;20080;-37
2022/10/01 02:31:22;;;;;;;5.47;2.70;;;11.20;99.90;;;;;;5055079;28;20040;-39
2022/10/01 02:33:51;;;;;;;3.17;2.05;;;11.20;99.90;;;;;;5052563;28;20045;-39
2022/10/01 02:36:19;;;;;;;4.60;2.75;;;11.20;99.90;;;;;;5053264;28;20049;-39
2022/10/01 02:38:49;;;;;;;5.63;2.90;;;11.20;99.90;;;;;;5051958;28;20036;-39
2022/10/01 02:41:19;;;;;;;2.95;1.85;;;11.20;99.90;;;;;;5054253;28;20234;-38
2022/10/01 02:43:53;;;;;;;4.55;2.55;;;11.20;99.90;;;;;;5052889;28;20035;-38
2022/10/01 02:46:32;;;;;;;3.53;1.98;;;11.30;99.90;;;;;;5050469;28;20044;-38
2022/10/01 02:49:00;;;;;;;2.75;1.42;;;11.20;99.90;;;;;;5052151;28;20049;-38
2022/10/01 02:51:56;;;;;;;3.35;2.25;;;11.20;99.90;;;;;;5051272;28;20075;-38
2022/10/01 02:54:30;;;;;;;3.30;2.03;;;11.20;99.90;;;;;;5052352;28;20041;-38
2022/10/01 02:59:42;;;;;;;2.95;1.90;;;11.20;99.90;;;;;;5048461;28;20524;-39
2022/10/01 03:02:08;;;;;;;3.75;1.58;;;11.20;99.90;;;;;;5047632;28;20160;-41
2022/10/01 03:04:34;;;;;;;4.32;1.98;;;11.20;99.90;;;;;;5051158;28;20119;-39
2022/10/01 03:07:02;;;;;;;3.97;2.05;;;11.20;99.90;;;;;;5052231;28;20179;-35
2022/10/01 03:09:33;;;;;;;3.53;1.92;;;11.20;99.90;;;;;;5052070;28;20561;-37
2022/10/01 03:11:59;;;;;;;3.30;1.90;;;11.20;99.90;;;;;;5039604;28;20049;-36
2022/10/01 03:14:26;;;;;;;3.42;1.85;;;11.20;99.90;;;;;;5048179;28;20047;-36
2022/10/01 03:16:52;;;;;;;3.28;1.52;;;11.20;99.90;;;;;;5053270;28;20118;-36
2022/10/01 03:19:18;;;;;;;3.40;1.95;;;11.20;99.90;;;;;;5043039;28;20048;-37
2022/10/01 03:21:44;;;;;;;4.38;2.20;;;11.20;99.90;;;;;;5029909;28;20036;-36
2022/10/01 03:24:10;;;;;;;4.88;1.95;;;11.20;99.90;;;;;;5026943;28;20087;-35
2022/10/01 03:26:35;;;;;;;3.70;2.00;;;11.20;99.90;;;;;;5045257;28;20041;-36
2022/10/01 03:29:03;;;;;;;4.45;2.13;;;11.10;99.90;;;;;;5041319;28;20536;-36
2022/10/01 03:31:29;;;;;;;4.15;2.28;;;11.10;99.90;;;;;;5032520;28;20056;-36
2022/10/01 03:33:59;;;;;;;4.38;2.55;;;11.10;99.90;;;;;;5047578;28;20060;-36
2022/10/01 03:36:28;;;;;;;3.83;1.80;;;11.10;99.90;;;;;;5039597;28;20124;-36
2022/10/01 03:38:54;;;;;;;3.67;1.92;;;11.10;99.90;;;;;;5050174;28;20037;-36
2022/10/01 03:41:21;;;;;;;2.67;1.70;;;11.20;99.90;;;;;;5031695;28;20041;-36
2022/10/01 03:43:46;;;;;;;3.40;1.98;;;11.10;99.90;;;;;;5042854;28;20307;-35
2022/10/01 03:46:13;;;;;;;3.17;1.42;;;11.20;99.90;;;;;;5049227;28;20025;-36
2022/10/01 03:48:38;;;;;;;2.53;1.60;;;11.20;99.90;;;;;;5057236;28;20501;-37
2022/10/01 03:51:04;;;;;;;2.80;1.50;;;11.20;99.90;;;;;;5052479;28;20036;-38
2022/10/01 03:53:30;;;;;;;2.70;1.50;;;11.20;99.90;;;;;;5054759;28;20506;-38
2022/10/01 03:55:58;;;;;;;1.73;0.88;;;11.20;99.90;;;;;;5050597;28;20033;-38
2022/10/01 03:58:24;;;;;;;1.90;1.08;;;11.20;99.90;;;;;;5050694;28;20053;-37
2022/10/01 04:00:50;;;;;;;2.72;1.42;;;11.20;99.90;;;;;;5053918;28;20109;-37
2022/10/01 04:03:17;;;;;;;1.92;1.10;;;11.20;99.90;;;;;;5050628;28;20048;-38
2022/10/01 04:05:43;;;;;;;1.80;0.90;;;11.20;99.90;;;;;;5050794;28;20041;-37
2022/10/01 04:08:10;;;;;;;2.03;0.95;;;11.20;99.90;;;;;;5048553;28;20084;-38
2022/10/01 04:10:36;;;;;;;1.20;0.70;;;11.20;99.90;;;;;;5051325;28;20116;-38
2022/10/01 04:13:03;;;;;;;2.08;1.02;;;11.30;99.90;;;;;;5030672;28;20099;-37
2022/10/01 04:15:29;;;;;;;1.70;0.60;;;11.30;99.90;;;;;;5049855;28;20055;-37
2022/10/01 04:17:55;;;;;;;2.85;1.00;;;11.30;99.90;;;;;;5050589;28;20041;-36
2022/10/01 04:20:21;;;;;;;1.10;0.63;;;11.30;99.90;;;;;;5050451;28;20144;-36
2022/10/01 04:22:46;;;;;;;1.33;0.70;;;11.40;99.90;;;;;;5049768;28;20037;-37
2022/10/01 04:25:12;;;;;;;1.25;0.73;;;11.40;99.90;;;;;;5048942;28;20057;-37
2022/10/01 04:27:54;;;;;;;1.15;0.60;;;11.40;99.90;;;;;;5047568;28;20456;-37
2022/10/01 04:30:20;;;;;;;1.13;0.60;;;11.40;99.90;;;;;;5049993;28;20043;-39
2022/10/01 04:32:45;;;;;;;1.42;0.60;;;11.40;99.90;;;;;;5050042;28;20036;-38
2022/10/01 04:35:11;;;;;;;1.30;0.60;;;11.50;99.90;;;;;;5048167;28;20048;-38
2022/10/01 04:37:37;;;;;;;1.42;0.65;;;11.50;99.90;;;;;;5053381;28;20292;-38
2022/10/01 04:40:03;;;;;;;1.73;0.80;;;11.50;99.90;;;;;;5051327;28;20037;-36
2022/10/01 04:42:29;;;;;;;2.40;1.17;;;11.60;99.90;;;;;;5050898;28;20041;-38
2022/10/01 04:44:56;;;;;;;1.98;1.10;;;11.60;99.90;;;;;;5047203;28;20039;-37
2022/10/01 04:47:22;;;;;;;2.75;1.00;;;11.70;99.90;;;;;;5048114;28;20120;-37
2022/10/01 04:49:47;;;;;;;2.70;1.33;;;11.70;99.90;;;;;;5046046;28;20570;-38
2022/10/01 04:52:13;;;;;;;2.15;1.15;;;11.70;99.90;;;;;;5050076;28;20043;-38
2022/10/01 04:54:39;;;;;;;2.05;1.15;;;11.70;99.90;;;;;;5047807;28;20051;-38
2022/10/01 04:57:04;;;;;;;3.17;1.48;;;11.80;99.90;;;;;;5046529;28;20033;-38
2022/10/01 04:59:30;;;;;;;3.45;1.60;;;11.80;99.90;;;;;;5046218;28;20045;-37
2022/10/01 05:01:56;;;;;;;5.97;2.00;;;11.80;99.90;;;;;;5045902;28;20109;-38
2022/10/01 05:04:22;;;;;;;4.10;2.13;;;11.80;99.90;;;;;;5048056;28;20040;-38
2022/10/01 05:06:48;;;;;;;3.92;2.22;;;11.80;99.90;;;;;;5049775;28;20566;-37
2022/10/01 05:09:14;;;;;;;2.95;2.13;;;11.80;99.90;;;;;;5047409;28;20049;-38
2022/10/01 05:11:39;;;;;;;4.78;2.40;;;11.90;99.90;;;;;;5047283;28;20041;-37
2022/10/01 05:14:07;;;;;;;2.97;2.13;;;11.90;99.90;;;;;;5045735;28;20454;-37
2022/10/01 05:16:33;;;;;;;4.65;2.55;;;11.90;99.90;;;;;;5029818;28;20513;-37
2022/10/01 05:18:58;;;;;;;3.38;2.25;;;12.00;99.90;;;;;;5045916;28;20033;-37
2022/10/01 05:21:24;;;;;;;3.80;2.47;;;12.00;99.90;;;;;;5045116;28;20036;-36
2022/10/01 05:23:50;;;;;;;6.15;2.55;;;12.00;99.90;;;;;;5047476;28;20477;-36
2022/10/01 05:26:15;;;;;;;4.07;2.50;;;12.00;99.90;;;;;;5043704;28;20041;-36
2022/10/01 05:28:44;;;;;;;3.85;2.70;;;11.90;99.90;;;;;;5049249;28;20072;-37
2022/10/01 05:31:11;;;;;;;3.60;2.85;;;11.90;99.90;;;;;;5041651;28;20136;-37
2022/10/01 05:33:37;;;;;;;4.90;3.00;;;11.90;99.90;;;;;;5024682;28;20049;-38
2022/10/01 05:36:05;;;;;;;4.10;3.10;;;11.90;99.90;;;;;;5044727;28;20037;-37
2022/10/01 05:38:35;;;;;;;4.35;3.33;;;11.90;99.90;;;;;;5044077;28;20095;-38
2022/10/01 05:41:01;;;;;;;5.95;3.38;;;11.80;99.90;;;;;;5047157;28;20037;-39
2022/10/01 05:43:26;;;;;;;5.30;3.47;;;11.80;99.90;;;;;;5046744;28;22007;-40
2022/10/01 05:45:52;;;;;;;5.75;3.78;;;11.80;99.90;;;;;;5047766;28;20033;-38
2022/10/01 05:48:18;;;;;;;9.38;3.60;;;11.80;99.90;;;;;;5046535;28;20067;-37
2022/10/01 05:50:43;;;;;;;7.43;3.97;;;11.80;99.90;;;;;;5041175;28;20059;-37
2022/10/01 05:53:10;;;;;;;5.25;3.70;;;11.80;99.90;;;;;;5050592;28;20073;-38
2022/10/01 05:55:36;;;;;;;5.70;4.40;;;11.90;99.90;;;;;;5051098;28;20052;-38
2022/10/01 05:58:09;;;;;;;5.25;4.00;;;11.90;99.90;;;;;;5048391;28;20045;-38
2022/10/01 06:00:36;;;;;;;4.90;3.88;;;11.90;99.90;;;;;;5044346;28;20462;-37
2022/10/01 06:03:03;;;;;;;5.25;4.22;;;11.80;99.90;;;;;;5028136;28;20060;-37
2022/10/01 06:05:31;;;;;;;5.88;4.53;;;11.80;99.90;;;;;;5053824;28;20044;-38
2022/10/01 06:07:57;;;;;;;5.25;4.53;;;11.90;99.90;;;;;;5044697;28;20041;-37
2022/10/01 06:10:23;;;;;;;5.95;4.65;;;11.90;99.90;;;;;;5046700;28;20095;-39
2022/10/01 06:12:49;;;;;;;6.50;5.00;;;11.90;99.90;;;;;;5046679;28;20402;-38
2022/10/01 06:15:16;;;;;;;6.28;4.65;;;11.90;99.90;;;;;;5047327;28;20501;-44
2022/10/01 06:17:43;;;;;;;9.45;4.57;;;11.90;99.90;;;;;;5055171;28;20037;-37
2022/10/01 06:20:14;;;;;;;7.13;4.97;;;11.90;99.90;;;;;;5058856;28;20522;-37
2022/10/01 06:22:42;;;;;;;5.28;4.22;;;11.90;99.90;;;;;;5051929;28;20087;-37
2022/10/01 06:25:12;;;;;;;6.72;4.88;;;11.90;99.90;;;;;;5052664;28;20033;-37
2022/10/01 06:27:38;;;;;;;7.28;5.00;;;11.90;99.90;;;;;;5053969;28;20084;-37
2022/10/01 06:30:05;;;;;;;7.00;5.32;;;11.90;99.90;;;;;;5050965;28;20044;-37
2022/10/01 06:32:32;;;;;;;5.82;4.78;;;12.00;99.90;;;;;;5050721;28;20076;-36
2022/10/01 06:34:57;;;;;;;7.07;4.88;;;12.00;99.90;;;;;;5057485;28;20117;-37
2022/10/01 06:37:24;;;;;;;8.43;5.88;;;12.00;99.90;;;;;;5049665;28;20125;-37
2022/10/01 06:39:49;;;;;;;6.78;5.20;;;12.10;99.90;;;;;;5049760;28;20168;-38
2022/10/01 06:42:15;;;;;;;6.53;4.95;;;12.10;99.90;;;;;;5049881;28;20128;-37
2022/10/01 06:44:41;;;;;;;5.85;4.60;;;12.10;99.90;;;;;;5045002;28;20152;-38
2022/10/01 06:47:07;;;;;;;7.40;5.43;;;12.10;99.90;;;;;;5051339;28;20494;-37
2022/10/01 06:49:33;;;;;;;7.07;4.82;;;12.10;99.90;;;;;;5016636;28;20542;-37
2022/10/01 06:54:44;;;;;;;7.82;5.18;;;12.20;99.90;;;;;;5047386;28;20045;-39
2022/10/01 06:57:10;;;;;;;7.38;5.65;;;12.20;99.90;;;;;;5049763;28;20104;-37
2022/10/01 06:59:36;;;;;;;9.88;5.50;;;12.30;99.90;;;;;;5049094;28;20033;-37
2022/10/01 07:02:02;;;;;;;9.18;4.88;;;12.40;99.90;;;;;;5045056;28;20509;-36
2022/10/01 07:04:28;;;;;;;8.80;5.30;;;12.40;99.90;;;;;;5044828;28;20044;-37
2022/10/01 07:06:54;;;;;;;7.35;5.20;;;12.40;99.90;;;;;;5044121;28;20049;-36
2022/10/01 07:09:25;;;;;;;7.85;5.50;;;12.40;99.90;;;;;;5043091;28;20063;-37
2022/10/01 07:11:56;;;;;;;7.43;5.20;;;12.40;99.90;;;;;;5050375;28;20449;-36
2022/10/01 07:14:21;;;;;;;8.75;4.53;;;12.50;99.90;;;;;;5052928;28;20045;-36
2022/10/01 07:16:47;;;;;;;6.53;4.63;;;12.60;99.90;;;;;;5049929;28;20033;-36
2022/10/01 07:19:13;;;;;;;10.52;4.50;;;12.80;99.90;;;;;;5051682;28;20101;-36
2022/10/01 07:21:38;;;;;;;6.82;4.28;;;12.80;99.90;;;;;;5051256;28;20037;-35
2022/10/01 07:24:04;;;;;;;10.70;4.03;;;12.90;99.90;;;;;;5051599;28;20032;-36
2022/10/01 07:26:30;;;;;;;10.23;3.95;;;13.00;99.90;;;;;;5046759;28;20116;-36
2022/10/01 07:28:55;;;;;;;4.75;2.88;;;13.00;99.90;;;;;;5054520;28;20048;-36
2022/10/01 07:31:22;;;;;;;7.95;3.53;;;13.10;99.90;;;;;;5049583;28;20097;-37
2022/10/01 07:33:48;;;;;;;7.53;3.00;;;13.20;99.90;;;;;;5050874;28;20036;-37
2022/10/01 07:36:14;;;;;;;6.88;2.97;;;13.20;99.90;;;;;;5051650;28;20124;-37
2022/10/01 07:38:42;;;;;;;4.13;2.33;;;13.30;99.90;;;;;;5049585;28;20056;-37
2022/10/01 07:41:08;;;;;;;7.25;2.67;;;13.40;99.90;;;;;;5043161;28;20033;-37
2022/10/01 07:43:35;;;;;;;5.20;2.40;;;13.60;99.90;;;;;;5043117;28;20033;-37
2022/10/01 07:46:02;;;;;;;8.15;2.58;;;13.70;99.90;;;;;;5043698;28;20054;-37
2022/10/01 07:48:28;;;;;;;4.00;2.20;;;13.80;99.90;;;;;;5050502;28;20045;-36
2022/10/01 07:50:53;;;;;;;3.83;1.70;;;13.80;99.90;;;;;;5046751;28;20052;-37
2022/10/01 07:53:19;;;;;;;6.25;2.58;;;13.90;99.90;;;;;;5046899;28;20063;-37
2022/10/01 07:55:45;;;;;;;9.00;2.60;;;14.00;99.90;;;;;;5045183;28;20036;-38
2022/10/01 07:58:11;;;;;;;6.20;2.60;;;14.00;99.90;;;;;;5050416;28;20041;-37
2022/10/01 08:00:37;;;;;;;5.55;2.20;;;14.00;99.90;;;;;;5048801;28;20734;-37
2022/10/01 08:03:04;;;;;;;8.77;1.98;;;14.10;99.90;;;;;;5055369;28;20561;-37
2022/10/01 08:05:32;;;;;;;5.90;1.90;;;14.00;99.90;;;;;;5048356;28;20045;-38
2022/10/01 08:08:05;;;;;;;12.15;2.17;;;14.00;99.90;;;;;;5043393;28;20049;-38
2022/10/01 08:10:35;;;;;;;6.70;1.63;;;14.00;99.90;;;;;;5055837;28;20037;-38
2022/10/01 08:13:23;;;;;;;7.45;2.10;;;14.00;99.90;;;;;;5046482;28;20037;-38
2022/10/01 08:15:52;;;;;;;4.28;1.00;;;14.00;99.90;;;;;;5046648;28;20051;-37
2022/10/01 08:18:19;;;;;;;3.60;1.13;;;14.00;99.90;;;;;;5045564;28;20056;-38
2022/10/01 08:20:45;;;;;;;4.95;1.38;;;14.00;99.90;;;;;;5050883;28;20402;-36
2022/10/01 08:23:15;;;;;;;5.88;1.65;;;14.10;99.90;;;;;;5046711;28;20040;-37
2022/10/01 08:25:41;;;;;;;7.45;1.73;;;14.20;99.90;;;;;;5047981;28;20047;-37
2022/10/01 08:28:09;;;;;;;4.28;1.45;;;14.30;99.90;;;;;;5042837;28;20134;-36
2022/10/01 08:30:38;;;;;;;6.85;1.55;;;14.40;99.90;;;;;;5049538;28;20041;-39
2022/10/01 08:33:03;;;;;;;4.13;1.20;;;14.50;99.90;;;;;;5051938;28;20458;-39
2022/10/01 08:35:29;;;;;;;6.63;1.10;;;14.70;99.90;;;;;;5049231;28;20197;-39
2022/10/01 08:38:00;;;;;;;6.43;1.38;;;14.80;99.90;;;;;;5032041;28;20079;-38
2022/10/01 08:40:26;;;;;;;4.10;1.00;;;15.00;99.90;;;;;;5048748;28;20175;-38
2022/10/01 08:43:06;;;;;;;6.55;0.85;;;15.20;99.90;;;;;;5048456;28;20525;-38
2022/10/01 08:45:40;;;;;;;4.45;0.60;;;15.30;99.90;;;;;;5046304;28;20083;-40
2022/10/01 08:48:27;;;;;;;2.72;0.60;;;15.50;99.90;;;;;;5048011;28;20091;-40
2022/10/01 08:51:24;;;;;;;3.60;0.60;;;15.50;99.90;;;;;;5048216;28;20036;-38
2022/10/01 08:53:54;;;;;;;5.95;0.88;;;15.30;99.90;;;;;;5038283;28;20041;-38
2022/10/01 08:56:29;;;;;;;3.97;0.50;;;15.10;99.90;;;;;;5043740;28;20522;-40
2022/10/01 08:59:03;;;;;;;3.95;0.73;;;15.00;99.90;;;;;;5041450;28;20043;-39
2022/10/01 09:01:29;;;;;;;2.97;0.50;;;14.90;99.90;;;;;;5059371;28;20041;-36
2022/10/01 09:03:57;;;;;;;4.47;0.60;;;14.90;99.90;;;;;;5049664;28;20405;-36
2022/10/01 09:06:25;;;;;;;8.32;0.50;;;14.90;99.90;;;;;;5048459;28;20115;-37
2022/10/01 09:09:28;;;;;;;1.92;0.50;;;14.90;99.90;;;;;;5049697;28;20520;-36
2022/10/01 09:11:59;;;;;;;1.92;0.30;;;15.10;99.90;;;;;;5045248;28;20053;-38
2022/10/01 09:14:49;;;;;;;1.27;0.30;;;15.30;99.90;;;;;;5042032;28;20045;-38
2022/10/01 09:17:15;;;;;;;6.50;0.30;;;15.30;99.90;;;;;;5050577;28;20033;-38
2022/10/01 09:19:44;;;;;;;4.78;0.75;;;15.20;99.90;;;;;;5049297;28;20044;-37
2022/10/01 09:22:43;;;;;;;2.95;0.40;;;15.10;99.90;;;;;;5042138;28;20033;-37
2022/10/01 09:25:18;;;;;;;6.47;0.75;;;15.00;99.90;;;;;;5057067;28;20072;-37
2022/10/01 09:27:45;;;;;;;5.05;0.80;;;15.10;99.90;;;;;;5036000;28;20051;-38
2022/10/01 09:30:20;;;;;;;6.55;0.50;;;15.30;99.90;;;;;;5045526;28;20033;-37
2022/10/01 09:32:54;;;;;;;6.53;0.82;;;15.50;99.90;;;;;;5043757;28;20060;-37
2022/10/01 09:35:47;;;;;;;5.25;0.70;;;15.60;99.90;;;;;;5031174;28;20044;-37
2022/10/01 09:38:39;;;;;;;3.58;0.70;;;15.60;99.90;;;;;;5048955;28;20055;-36
2022/10/01 09:41:07;;;;;;;7.67;0.87;;;15.60;99.90;;;;;;5055320;28;20032;-35
2022/10/01 09:43:36;;;;;;;6.40;1.38;;;15.60;99.90;;;;;;5049128;28;20572;-36
2022/10/01 09:46:05;;;;;;;8.05;1.02;;;15.70;99.90;;;;;;5052171;28;20036;-36
2022/10/01 09:48:49;;;;;;;8.80;0.98;;;16.00;99.90;;;;;;5052306;28;20042;-36
2022/10/01 09:51:23;;;;;;;7.40;1.20;;;16.10;99.90;;;;;;5049911;28;20045;-36
2022/10/01 09:54:15;;;;;;;5.45;1.00;;;16.20;99.90;;;;;;5045785;28;20041;-38
2022/10/01 09:56:57;;;;;;;6.93;1.10;;;16.30;99.90;;;;;;5048713;28;20040;-38
2022/10/01 09:59:39;;;;;;;6.45;0.88;;;16.40;99.90;;;;;;5052918;28;20040;-38
2022/10/01 10:02:14;;;;;;;4.97;0.98;;;16.60;99.90;;;;;;5049626;28;20522;-38
2022/10/01 10:04:40;;;;;;;7.82;1.00;;;16.70;99.90;;;;;;5052134;28;20067;-37
2022/10/01 10:07:06;;;;;;;6.18;1.10;;;16.80;99.90;;;;;;5047374;28;20044;-37
2022/10/01 10:09:34;;;;;;;8.93;0.90;;;16.70;99.90;;;;;;5048152;28;20059;-36
2022/10/01 10:12:01;;;;;;;7.03;0.95;;;16.60;99.90;;;;;;5051159;28;20029;-35
2022/10/01 10:14:36;;;;;;;4.85;0.82;;;16.40;99.90;;;;;;5045588;28;20493;-35
2022/10/01 10:17:13;;;;;;;3.97;0.85;;;16.30;99.90;;;;;;5049403;28;20063;-35
2022/10/01 10:19:45;;;;;;;8.27;1.33;;;16.30;99.90;;;;;;5047305;28;20493;-39
2022/10/01 10:22:37;;;;;;;5.70;0.90;;;16.50;99.90;;;;;;5044324;28;20500;-38
2022/10/01 10:25:14;;;;;;;8.73;1.30;;;16.70;99.90;;;;;;5045135;28;20185;-41
2022/10/01 10:27:53;;;;;;;7.53;1.15;;;16.80;99.90;;;;;;5051879;28;20153;-38
2022/10/01 10:30:20;;;;;;;8.30;1.00;;;16.80;99.90;;;;;;5039864;28;20040;-38
2022/10/01 10:32:46;;;;;;;5.38;1.00;;;16.80;99.90;;;;;;5054116;28;20115;-39
2022/10/01 10:35:21;;;;;;;7.82;0.88;;;16.70;99.90;;;;;;5051318;28;20080;-40
2022/10/01 10:37:50;;;;;;;2.85;0.80;;;16.30;99.90;;;;;;5057084;28;20028;-40
2022/10/01 10:40:22;;;;;;;6.90;0.50;;;16.00;99.90;;;;;;5047229;28;20061;-38
2022/10/01 10:42:56;;;;;;;5.15;0.50;;;15.70;99.90;;;;;;5049020;28;20037;-40
2022/10/01 10:45:36;;;;;;;5.28;1.05;;;15.60;99.90;;;;;;5047093;28;20598;-40
2022/10/01 10:48:04;;;;;;;7.97;1.13;;;15.50;99.90;;;;;;5047453;28;20069;-38
2022/10/01 10:50:35;;;;;;;7.82;1.30;;;15.50;99.90;;;;;;5047958;28;20075;-39
2022/10/01 10:53:18;;;;;;;5.10;0.90;;;15.50;99.90;;;;;;5050542;28;20040;-37
2022/10/01 10:56:00;;;;;;;6.97;1.45;;;15.60;99.90;;;;;;5050919;28;20041;-38
2022/10/01 10:58:32;;;;;;;7.57;1.17;;;15.60;99.90;;;;;;5056251;28;20123;-39
2022/10/01 11:01:17;;;;;;;2.13;0.38;;;15.20;99.90;;;;;;5042299;28;20061;-39
2022/10/01 11:03:52;;;;;;;2.25;0.40;;;14.40;99.90;;;;;;5046510;28;20045;-36
2022/10/01 11:06:18;;;;;;;3.08;0.40;;;13.70;99.90;;;;;;5052044;28;20043;-37
2022/10/01 11:08:56;;;;;;;5.32;0.50;;;13.30;99.90;;;;;;5047733;28;20482;-35
2022/10/01 11:11:31;;;;;;;2.97;0.30;;;13.10;99.90;;;;;;5041251;28;20098;-37
2022/10/01 11:14:22;;;;;;;1.70;0.50;;;13.10;99.90;;;;;;5051822;28;20047;-37
2022/10/01 11:17:23;;;;;;;3.65;0.98;;;13.10;99.90;;;;;;5053532;28;20482;-37
2022/10/01 11:19:49;;;;;;;5.40;0.50;;;13.10;99.90;;;;;;5032128;28;20053;-37
2022/10/01 11:22:34;;;;;;;1.73;0.40;;;13.10;99.90;;;;;;5056266;28;20562;-37
2022/10/01 11:25:15;;;;;;;3.63;0.65;;;13.10;99.90;;;;;;5034327;28;20136;-36
2022/10/01 11:28:06;;;;;;;2.10;0.20;;;13.10;99.90;;;;;;5046570;28;20041;-37
2022/10/01 11:31:02;;;;;;;2.80;0.30;;;13.10;99.90;;;;;;5046644;28;20044;-37
2022/10/01 11:33:33;;;;;;;2.35;0.30;;;13.30;99.90;;;;;;5053164;28;20045;-36
2022/10/01 11:36:10;;;;;;;3.97;0.50;;;13.70;99.90;;;;;;5054108;28;20048;-36
2022/10/01 11:39:04;;;;;;;4.80;0.40;;;14.00;99.90;;;;;;5040190;28;20080;-36
2022/10/01 11:41:35;;;;;;;3.00;0.40;;;14.40;99.90;;;;;;5044065;28;20029;-37
2022/10/01 11:44:07;;;;;;;4.63;0.60;;;14.80;99.90;;;;;;5030777;28;20037;-35
2022/10/01 11:46:57;;;;;;;5.53;0.50;;;15.10;99.90;;;;;;5029942;28;20045;-36
2022/10/01 11:49:32;;;;;;;5.32;0.90;;;15.30;99.90;;;;;;5034459;28;20114;-37
2022/10/01 11:52:31;;;;;;;3.22;0.60;;;15.50;99.90;;;;;;5042294;28;20055;-36
2022/10/01 11:58:50;;;;;;;6.53;1.02;;;15.50;99.90;;;;;;5010620;28;20053;-36
2022/10/01 12:01:44;;;;;;;4.00;0.82;;;15.40;99.90;;;;;;5021141;28;20075;-36
2022/10/01 12:04:18;;;;;;;4.00;0.60;;;15.30;99.90;;;;;;5033899;28;20048;-36
2022/10/01 12:07:20;;;;;;;6.03;1.20;;;15.20;99.90;;;;;;5049583;28;20038;-36
2022/10/01 12:09:52;;;;;;;6.07;1.10;;;15.10;99.90;;;;;;5039523;28;20047;-36
2022/10/01 12:12:34;;;;;;;5.25;0.63;;;15.00;99.90;;;;;;5041917;28;20045;-36
2022/10/01 12:15:29;;;;;;;6.72;0.95;;;14.90;99.90;;;;;;5047996;28;20044;-37
2022/10/01 12:18:27;;;;;;;9.00;1.02;;;14.90;99.90;;;;;;5019520;28;20054;-37
2022/10/01 12:20:57;;;;;;;7.20;1.52;;;14.80;99.90;;;;;;5046206;28;20559;-37
2022/10/01 12:23:28;;;;;;;7.03;1.17;;;14.70;99.90;;;;;;5051171;28;20037;-36
2022/10/01 12:26:05;;;;;;;5.80;1.08;;;15.00;99.90;;;;;;5040479;28;20035;-36
2022/10/01 12:28:47;;;;;;;4.90;1.00;;;15.90;99.90;;;;;;5055355;28;20048;-35
2022/10/01 12:31:26;;;;;;;14.13;1.40;;;16.70;99.90;;;;;;5043889;28;20036;-36
2022/10/01 12:34:26;;;;;;;8.25;1.25;;;17.40;99.90;;;;;;5046819;28;20037;-36
2022/10/01 12:36:58;;;;;;;5.97;1.20;;;17.50;99.90;;;;;;5042535;28;20033;-35
2022/10/01 12:39:44;;;;;;;7.55;0.68;;;17.80;99.90;;;;;;5042708;28;20505;-35
2022/10/01 12:42:42;;;;;;;5.22;1.10;;;17.90;99.90;;;;;;5047174;28;20494;-36
2022/10/01 12:45:24;;;;;;;4.15;1.08;;;17.90;99.90;;;;;;5051939;28;20052;-37
2022/10/01 12:48:14;;;;;;;5.13;1.00;;;18.00;99.10;;;;;;5044309;28;20123;-37
2022/10/01 12:51:09;;;;;;;8.15;1.40;;;18.20;97.60;;;;;;5044821;28;20049;-37
2022/10/01 12:53:39;;;;;;;7.43;1.08;;;18.30;97.70;;;;;;5044199;28;20155;-35
2022/10/01 12:56:28;;;;;;;5.95;0.60;;;17.70;97.80;;;;;;5044318;28;20486;-36
2022/10/01 12:59:29;;;;;;;8.30;1.05;;;17.00;98.10;;;;;;5051631;28;20106;-37
2022/10/01 13:02:19;;;;;;;5.78;0.82;;;16.50;99.80;;;;;;5038203;28;20123;-37
2022/10/01 13:05:03;;;;;;;7.45;0.90;;;16.10;99.90;;;;;;5049820;28;20098;-36
2022/10/01 13:08:03;;;;;;;6.40;1.00;;;16.00;99.90;;;;;;5058409;28;20497;-36
2022/10/01 13:10:55;;;;;;;6.45;0.98;;;16.70;99.90;;;;;;5045442;28;20523;-36
2022/10/01 13:13:31;;;;;;;10.73;1.00;;;17.90;99.80;;;;;;5047584;28;20083;-36
2022/10/01 13:16:27;;;;;;;5.85;1.10;;;18.40;97.30;;;;;;5048215;28;20508;-35
2022/10/01 13:19:05;;;;;;;10.05;0.98;;;18.40;97.20;;;;;;5023877;28;20528;-38
2022/10/01 13:21:52;;;;;;;8.90;1.45;;;18.90;96.00;;;;;;5050007;28;20485;-36
2022/10/01 13:24:39;;;;;;;5.47;0.80;;;19.70;94.80;;;;;;5045029;28;20045;-36
2022/10/01 13:27:13;;;;;;;7.13;0.80;;;20.40;92.40;;;;;;5045616;28;20041;-36